Los Gatos, California
Current Conditions -  °F | °C
As of 12:53 AM on Saturday 29 Nov 2014 (Local Time) from KSJC Reporting Station
Overcast Overcast  
Wind Chill: 54°   Ceiling: 3300
Heat Index: 54°   Visibility: 10mi
Dew Point: 48°   Wind: 8mph
Humidity: 80%   Direction: 160°SSE
Pressure: 29.86"   Gusts: NA
Location:  37.22°N, 121.97°W
Report Text: KSJC 290853Z AUTO 16007KT 10SM BKN033 OVC075 12/09 A2986 RMK AO2 SLP112 T01220089 56011
Loading
Personal Weather Stations






























Interactive Weather Map New forecast layout! Learn more

10-Day Weather Forecast

Advertisements
Track Severe Weather on mobile